createdAt,value
2018-12-12T00:00:53.311Z,103060.29
2018-12-12T00:03:19.371Z,103062.41
2018-12-12T00:05:45.407Z,103057.54
2018-12-12T00:08:11.478Z,103057.95
2018-12-12T00:10:37.535Z,103056.64
2018-12-12T00:13:03.725Z,103057.45
2018-12-12T00:15:30.211Z,103049.44
2018-12-12T00:17:56.375Z,103053.45
2018-12-12T00:20:22.419Z,103048.91
2018-12-12T00:22:48.617Z,103059.98
2018-12-12T00:25:14.696Z,103070.38
2018-12-12T00:27:40.726Z,103064.70
2018-12-12T00:30:22.023Z,103066.38
2018-12-12T00:32:48.056Z,103063.77
2018-12-12T00:35:14.070Z,103070.70
2018-12-12T00:37:40.128Z,103082.00
2018-12-12T00:40:06.297Z,103080.61
2018-12-12T00:42:32.363Z,103084.48
2018-12-12T00:44:58.393Z,103089.66
2018-12-12T00:47:24.405Z,103095.70
2018-12-12T00:49:50.551Z,103097.45
2018-12-12T00:52:16.579Z,103105.29
2018-12-12T00:54:42.836Z,103102.19
2018-12-12T00:57:08.880Z,103100.87
2018-12-12T01:02:33.588Z,103105.74
2018-12-12T01:04:59.610Z,103100.06
2018-12-12T01:07:26.246Z,103094.74
2018-12-12T01:09:52.427Z,103107.50
2018-12-12T01:12:18.476Z,103100.97
2018-12-12T01:14:44.542Z,103034.05
2018-12-12T01:17:10.588Z,103092.18
2018-12-12T01:19:37.626Z,103089.03
2018-12-12T01:22:03.632Z,103096.46
2018-12-12T01:24:29.807Z,103092.95
2018-12-12T01:26:55.847Z,103100.83
2018-12-12T01:29:21.918Z,103104.70
2018-12-12T01:31:47.930Z,103106.45
2018-12-12T01:34:13.956Z,103116.00
2018-12-12T01:36:40.009Z,103112.03
2018-12-12T01:39:13.158Z,103103.66
2018-12-12T01:41:39.225Z,103124.10
2018-12-12T01:44:05.238Z,103103.96
2018-12-12T01:46:31.267Z,103118.37
2018-12-12T01:48:57.308Z,103127.87
2018-12-12T01:51:23.317Z,103124.66
2018-12-12T01:53:49.335Z,103124.56
2018-12-12T01:56:15.392Z,103133.66
2018-12-12T01:58:41.424Z,103124.38
2018-12-12T02:01:07.452Z,103142.26
2018-12-12T02:03:33.487Z,103142.16
2018-12-12T02:05:59.538Z,103146.92
2018-12-12T02:08:25.793Z,103145.52
2018-12-12T02:10:52.084Z,103146.32
2018-12-12T02:13:30.269Z,103144.91
2018-12-12T02:15:56.553Z,103146.16
2018-12-12T02:18:22.569Z,103154.41
2018-12-12T02:20:48.599Z,103153.00
2018-12-12T02:23:14.784Z,103156.45
2018-12-12T02:25:41.050Z,103156.81
2018-12-12T02:28:07.127Z,103164.13
2018-12-12T02:30:33.153Z,103159.17
2018-12-12T02:32:59.196Z,103154.00
2018-12-12T02:35:25.220Z,103156.96
2018-12-12T02:37:51.214Z,103146.27
2018-12-12T02:40:17.255Z,103154.09
2018-12-12T02:42:43.335Z,103167.09
2018-12-12T02:45:09.341Z,103163.13
2018-12-12T02:47:35.356Z,103157.01
2018-12-12T02:50:01.406Z,103155.19
2018-12-12T02:52:27.451Z,103154.68
2018-12-12T02:54:53.506Z,103157.70
2018-12-12T02:57:19.531Z,103165.47
2018-12-12T02:59:45.557Z,103161.09
2018-12-12T03:02:11.589Z,103160.20
2018-12-12T03:04:37.621Z,103161.50
2018-12-12T03:07:03.906Z,103158.48
2018-12-12T03:09:29.955Z,103168.48
2018-12-12T03:11:56.075Z,103160.60
2018-12-12T03:14:22.078Z,103167.07
2018-12-12T03:16:48.106Z,103165.26
2018-12-12T03:19:14.381Z,103178.30
2018-12-12T03:21:40.432Z,103183.88
2018-12-12T03:24:06.476Z,103188.17
2018-12-12T03:26:32.747Z,103195.50
2018-12-12T03:28:58.754Z,103198.55
2018-12-12T03:31:24.801Z,103201.16
2018-12-12T03:33:50.814Z,103204.23
2018-12-12T03:36:16.873Z,103201.62
2018-12-12T03:38:42.894Z,103207.74
2018-12-12T03:41:08.935Z,103200.67
2018-12-12T03:43:34.981Z,103211.22
2018-12-12T03:46:01.058Z,103216.37
2018-12-12T03:48:27.125Z,103209.28
2018-12-12T03:50:53.117Z,103212.24
2018-12-12T03:53:19.169Z,103213.49
2018-12-12T03:55:45.214Z,103221.31
2018-12-12T03:58:11.218Z,103198.08
2018-12-12T04:00:37.667Z,103213.37
2018-12-12T04:03:03.736Z,103212.48
2018-12-12T04:05:29.803Z,103216.28
2018-12-12T04:07:55.839Z,103209.70
2018-12-12T04:10:21.858Z,103209.25
2018-12-12T04:12:47.918Z,103210.95
2018-12-12T04:15:13.967Z,103214.35
2018-12-12T04:17:40.022Z,103213.63
2018-12-12T04:20:06.172Z,103220.09
2018-12-12T04:22:32.555Z,103217.08
2018-12-12T04:24:58.809Z,103224.00
2018-12-12T04:27:25.018Z,103217.53
2018-12-12T04:29:51.093Z,103230.17
2018-12-12T04:32:17.089Z,103236.23
2018-12-12T04:34:43.127Z,103230.95
2018-12-12T04:37:09.161Z,103235.63
2018-12-12T04:39:35.179Z,103239.42
2018-12-12T04:42:01.352Z,103234.64
2018-12-12T04:44:27.373Z,103232.03
2018-12-12T04:46:53.859Z,103230.30
2018-12-12T04:49:19.891Z,103227.69
2018-12-12T04:51:45.900Z,103234.14
2018-12-12T04:54:11.980Z,103229.38
2018-12-12T04:56:38.000Z,103235.84
2018-12-12T04:59:04.156Z,103239.75
2018-12-12T05:01:30.214Z,103244.00
2018-12-12T05:03:56.209Z,103246.50
2018-12-12T05:06:22.240Z,103247.69
2018-12-12T05:08:48.279Z,103247.57
2018-12-12T05:11:14.321Z,103248.76
2018-12-12T05:13:40.348Z,103246.78
2018-12-12T05:16:06.401Z,103264.69
2018-12-12T05:18:32.424Z,103266.83
2018-12-12T05:20:58.500Z,103266.34
2018-12-12T05:23:24.531Z,103268.88
2018-12-12T05:25:50.570Z,103267.12
2018-12-12T05:28:16.870Z,103275.72
2018-12-12T05:30:43.008Z,103273.58
2018-12-12T05:33:09.019Z,103280.03
2018-12-12T05:35:35.332Z,103279.08
2018-12-12T05:38:01.356Z,103277.77
2018-12-12T05:40:27.605Z,103277.31
2018-12-12T05:42:53.637Z,103284.61
2018-12-12T05:45:20.423Z,103285.78
2018-12-12T05:47:46.442Z,103282.22
2018-12-12T05:50:12.510Z,103279.55
2018-12-12T05:52:38.566Z,103292.92
2018-12-12T05:55:04.658Z,103289.80
2018-12-12T05:57:30.704Z,103291.04
2018-12-12T05:59:56.725Z,103299.60
2018-12-12T06:02:22.788Z,103306.55
2018-12-12T06:04:48.826Z,103307.80
2018-12-12T06:07:14.906Z,103304.69
2018-12-12T06:09:40.951Z,103299.02
2018-12-12T06:12:06.993Z,103306.55
2018-12-12T06:14:33.090Z,103303.17
2018-12-12T06:16:59.111Z,103236.44
2018-12-12T06:19:25.190Z,103311.39
2018-12-12T06:21:51.448Z,103316.08
2018-12-12T06:24:17.488Z,103320.83
2018-12-12T06:26:43.549Z,103325.13
2018-12-12T06:29:09.681Z,103330.22
2018-12-12T06:31:35.756Z,103328.80
2018-12-12T06:34:01.830Z,103342.16
2018-12-12T06:36:27.858Z,103350.23
2018-12-12T06:38:54.056Z,103341.30
2018-12-12T06:41:20.101Z,103346.78
2018-12-12T06:43:46.150Z,103351.53
2018-12-12T06:46:12.209Z,103348.42
2018-12-12T06:48:38.266Z,103351.40
2018-12-12T06:51:04.423Z,103345.63
2018-12-12T06:53:30.478Z,103345.69
2018-12-12T06:55:56.512Z,103349.53
2018-12-12T06:58:22.547Z,103358.65
2018-12-12T07:00:48.617Z,103358.19
2018-12-12T07:03:14.654Z,103361.19
2018-12-12T07:05:40.721Z,103361.63
2018-12-12T07:08:06.764Z,103365.87
2018-12-12T07:10:32.803Z,103302.83
2018-12-12T07:12:58.790Z,103371.63
2018-12-12T07:15:24.842Z,103372.73
2018-12-12T07:17:50.845Z,103372.59
2018-12-12T07:20:16.890Z,103377.21
2018-12-12T07:22:42.937Z,103388.39
2018-12-12T07:25:08.949Z,103396.94
2018-12-12T07:27:35.008Z,103394.27
2018-12-12T07:30:01.301Z,103389.56
2018-12-12T07:32:27.354Z,103387.77
2018-12-12T07:34:53.395Z,103393.41
2018-12-12T07:37:19.410Z,103386.83
2018-12-12T07:39:45.471Z,103385.09
2018-12-12T07:42:11.540Z,103391.60
2018-12-12T07:44:37.590Z,103392.84
2018-12-12T07:47:03.649Z,103389.36
2018-12-12T07:49:29.742Z,103378.38
2018-12-12T07:54:51.526Z,103382.02
2018-12-12T07:57:17.557Z,103391.13
2018-12-12T07:59:43.699Z,103386.33
2018-12-12T08:02:09.758Z,103401.08
2018-12-12T08:04:35.815Z,103400.17
2018-12-12T08:07:01.884Z,103397.50
2018-12-12T08:09:27.955Z,103395.73
2018-12-12T08:11:54.053Z,103390.53
2018-12-12T08:14:20.071Z,103397.84
2018-12-12T08:16:46.146Z,103392.70
2018-12-12T08:19:12.195Z,103388.46
2018-12-12T08:21:38.235Z,103395.94
2018-12-12T08:24:04.279Z,103399.34
2018-12-12T08:26:30.308Z,103399.70
2018-12-12T08:28:56.336Z,103396.91
2018-12-12T08:31:22.604Z,103394.09
2018-12-12T08:33:48.612Z,103396.95
2018-12-12T08:36:14.647Z,103397.22
2018-12-12T08:38:40.710Z,103403.73
2018-12-12T08:41:06.780Z,103417.58
2018-12-12T08:43:32.841Z,103412.30
2018-12-12T08:45:58.900Z,103410.03
2018-12-12T08:48:24.960Z,103414.23
2018-12-12T08:50:50.976Z,103420.23
2018-12-12T08:53:17.007Z,103421.86
2018-12-12T08:55:43.075Z,103423.92
2018-12-12T08:58:09.151Z,103420.34
2018-12-12T09:00:35.184Z,103433.10
2018-12-12T09:03:01.337Z,103435.23
2018-12-12T09:05:27.362Z,103431.33
2018-12-12T09:07:53.405Z,103434.41
2018-12-12T09:10:19.441Z,103440.00
2018-12-12T09:12:45.475Z,103441.67
2018-12-12T09:15:11.658Z,103449.94
2018-12-12T09:17:37.677Z,103446.94
2018-12-12T09:20:04.342Z,103450.84
2018-12-12T09:22:30.370Z,103444.34
2018-12-12T09:24:56.442Z,103451.31
2018-12-12T09:27:22.437Z,103445.78
2018-12-12T09:29:48.516Z,103442.42
2018-12-12T09:32:14.804Z,103442.85
2018-12-12T09:34:40.844Z,103441.95
2018-12-12T09:37:06.887Z,103443.32
2018-12-12T09:39:32.918Z,103445.92
2018-12-12T09:41:58.941Z,103438.52
2018-12-12T09:44:25.122Z,103444.16
2018-12-12T09:46:51.194Z,103447.16
2018-12-12T09:49:17.213Z,103445.45
2018-12-12T09:51:43.235Z,103445.52
2018-12-12T09:54:09.278Z,103445.99
2018-12-12T09:56:35.346Z,103445.16
2018-12-12T09:59:01.506Z,103456.80
2018-12-12T10:01:27.552Z,103458.61
2018-12-12T10:03:53.573Z,103449.97
2018-12-12T10:06:19.618Z,103450.80
2018-12-12T10:08:45.640Z,103452.90
2018-12-12T10:11:11.841Z,103446.83
2018-12-12T10:13:37.898Z,103447.22
2018-12-12T10:16:03.970Z,103448.12
2018-12-12T10:18:30.047Z,103454.20
2018-12-12T10:20:56.144Z,103460.77
2018-12-12T10:23:22.166Z,103471.69
2018-12-12T10:25:48.233Z,103482.09
2018-12-12T10:28:14.221Z,103472.09
2018-12-12T10:30:47.252Z,103473.79
2018-12-12T10:33:13.554Z,103472.48
2018-12-12T10:35:39.626Z,103472.09
2018-12-12T10:38:05.692Z,103482.50
2018-12-12T10:40:32.909Z,103480.73
2018-12-12T10:42:59.117Z,103488.53
2018-12-12T10:45:25.142Z,103492.44
2018-12-12T10:47:51.243Z,103486.33
2018-12-12T10:50:17.300Z,103495.98
2018-12-12T10:52:43.350Z,103500.31
2018-12-12T10:58:05.053Z,103496.34
2018-12-12T11:00:33.429Z,103496.34
2018-12-12T11:03:05.333Z,103495.51
2018-12-12T11:05:31.737Z,103496.48
2018-12-12T11:07:57.812Z,103496.95
2018-12-12T11:10:24.815Z,103502.62
2018-12-12T11:12:50.853Z,103498.66
2018-12-12T11:15:16.879Z,103494.34
2018-12-12T11:17:42.930Z,103498.25
2018-12-12T11:20:08.984Z,103498.72
2018-12-12T11:22:35.055Z,103497.02
2018-12-12T11:25:01.076Z,103501.83
2018-12-12T11:27:27.097Z,103442.52
2018-12-12T11:29:53.117Z,103501.97
2018-12-12T11:32:19.171Z,103495.47
2018-12-12T11:34:45.389Z,103506.34
2018-12-12T11:37:11.449Z,103507.65
2018-12-12T11:39:37.518Z,103509.42
2018-12-12T11:42:03.562Z,103512.02
2018-12-12T11:44:29.607Z,103517.23
2018-12-12T11:46:55.637Z,103521.64
2018-12-12T11:49:21.672Z,103523.73
2018-12-12T11:51:47.732Z,103522.44
2018-12-12T11:54:13.779Z,103526.41
2018-12-12T11:56:39.850Z,103530.81
2018-12-12T11:59:05.881Z,103523.80
2018-12-12T12:01:31.942Z,103529.01
2018-12-12T12:03:58.012Z,103534.65
2018-12-12T12:06:24.134Z,103535.05
2018-12-12T12:08:50.266Z,103530.31
2018-12-12T12:11:16.517Z,103536.81
2018-12-12T12:13:42.599Z,103538.95
2018-12-12T12:16:08.703Z,103542.45
2018-12-12T12:18:34.723Z,103549.69
2018-12-12T12:21:00.821Z,103550.12
2018-12-12T12:23:27.106Z,103553.59
2018-12-12T12:25:53.151Z,103551.42
2018-12-12T12:28:19.194Z,103555.33
2018-12-12T12:30:45.297Z,103558.41
2018-12-12T12:33:11.371Z,103557.09
2018-12-12T12:35:37.569Z,103554.50
2018-12-12T12:38:03.610Z,103556.70
2018-12-12T12:40:29.724Z,103562.45
2018-12-12T12:42:55.753Z,103557.25
2018-12-12T12:45:21.811Z,103564.08
2018-12-12T12:47:48.094Z,103553.13
2018-12-12T12:50:14.126Z,103559.63
2018-12-12T12:52:40.170Z,103556.13
2018-12-12T12:55:06.201Z,103562.23
2018-12-12T12:57:32.240Z,103568.27
2018-12-12T12:59:58.267Z,103569.57
2018-12-12T13:02:24.321Z,103567.37
2018-12-12T13:04:50.349Z,103567.84
2018-12-12T13:07:16.399Z,103563.14
2018-12-12T13:09:42.457Z,103565.81
2018-12-12T13:12:08.608Z,103564.59
2018-12-12T13:14:34.754Z,103567.59
2018-12-12T13:17:00.809Z,103564.08
2018-12-12T13:19:26.836Z,103566.21
2018-12-12T13:21:52.876Z,103561.26
2018-12-12T13:24:18.884Z,103560.31
2018-12-12T13:26:45.564Z,103557.97
2018-12-12T13:29:11.757Z,103555.22
2018-12-12T13:31:37.795Z,103560.34
2018-12-12T13:34:03.860Z,103564.50
2018-12-12T13:36:30.251Z,103564.69
2018-12-12T13:38:56.283Z,103563.16
2018-12-12T13:41:22.330Z,103566.20
2018-12-12T13:43:48.418Z,103496.81
2018-12-12T13:46:14.436Z,103569.37
2018-12-12T13:48:40.464Z,103572.65
2018-12-12T13:51:06.530Z,103571.20
2018-12-12T13:53:32.647Z,103570.14
2018-12-12T13:55:58.742Z,103575.34
2018-12-12T13:58:24.782Z,103585.75
2018-12-12T14:00:50.839Z,103580.15
2018-12-12T14:03:16.840Z,103576.64
2018-12-12T14:05:42.882Z,103583.98
2018-12-12T14:08:08.909Z,103582.59
2018-12-12T14:10:34.928Z,103578.94
2018-12-12T14:13:01.030Z,103576.59
2018-12-12T14:15:27.051Z,103571.98
2018-12-12T14:17:53.096Z,103579.31
2018-12-12T14:20:19.136Z,103580.38
2018-12-12T14:22:45.182Z,103582.40
2018-12-12T14:25:11.488Z,103585.36
2018-12-12T14:27:39.031Z,103587.72
2018-12-12T14:30:07.322Z,103587.64
2018-12-12T14:32:33.318Z,103584.38
2018-12-12T14:34:59.370Z,103583.00
2018-12-12T14:37:25.674Z,103582.45
2018-12-12T14:39:51.697Z,103582.61
2018-12-12T14:42:24.537Z,103581.16
2018-12-12T14:44:50.606Z,103584.83
2018-12-12T14:47:16.616Z,103587.89
2018-12-12T14:49:42.653Z,103588.95
2018-12-12T14:52:08.707Z,103587.50
2018-12-12T14:54:35.025Z,103591.59
2018-12-12T14:57:01.049Z,103597.66
2018-12-12T14:59:27.089Z,103599.30
2018-12-12T15:01:53.152Z,103606.59
2018-12-12T15:04:19.210Z,103602.14
2018-12-12T15:06:45.251Z,103599.46
2018-12-12T15:09:11.276Z,103599.37
2018-12-12T15:11:37.353Z,103601.08
2018-12-12T15:14:03.410Z,103602.29
2018-12-12T15:16:29.454Z,103596.63
2018-12-12T15:18:55.475Z,103599.06
2018-12-12T15:21:25.808Z,103606.27
2018-12-12T15:23:49.576Z,103600.74
2018-12-12T15:26:15.581Z,103609.52
2018-12-12T15:28:41.614Z,103608.14
2018-12-12T15:31:07.787Z,103610.81
2018-12-12T15:33:33.814Z,103607.08
2018-12-12T15:35:59.867Z,103617.16
2018-12-12T15:38:25.990Z,103605.47
2018-12-12T15:40:52.021Z,103610.40
2018-12-12T15:43:18.093Z,103603.98
2018-12-12T15:45:44.158Z,103536.91
2018-12-12T15:48:10.161Z,103612.84
2018-12-12T15:50:36.174Z,103614.05
2018-12-12T15:53:02.244Z,103610.81
2018-12-12T15:55:28.324Z,103616.91
2018-12-12T15:57:54.357Z,103621.12
2018-12-12T16:00:21.039Z,103614.55
2018-12-12T16:02:47.308Z,103621.36
2018-12-12T16:05:13.369Z,103626.39
2018-12-12T16:07:39.435Z,103632.41
2018-12-12T16:10:06.258Z,103623.31
2018-12-12T16:12:32.305Z,103616.34
2018-12-12T16:14:58.397Z,103630.88
2018-12-12T16:17:24.454Z,103640.36
2018-12-12T16:19:50.458Z,103623.08
2018-12-12T16:22:16.499Z,103618.36
2018-12-12T16:24:42.513Z,103623.56
2018-12-12T16:27:08.596Z,103612.02
2018-12-12T16:29:34.646Z,103617.30
2018-12-12T16:32:00.735Z,103622.25
2018-12-12T16:34:26.779Z,103626.96
2018-12-12T16:36:52.851Z,103635.58
2018-12-12T16:39:19.041Z,103636.05
2018-12-12T16:41:45.088Z,103634.59
2018-12-12T16:44:11.154Z,103628.67
2018-12-12T16:46:37.179Z,103635.42
2018-12-12T16:49:03.347Z,103633.45
2018-12-12T16:51:29.404Z,103633.27
2018-12-12T16:53:55.435Z,103642.28
2018-12-12T16:56:21.491Z,103635.23
2018-12-12T16:58:47.523Z,103641.24
2018-12-12T17:01:13.554Z,103644.63
2018-12-12T17:03:39.587Z,103647.30
2018-12-12T17:09:01.199Z,103644.80
2018-12-12T17:11:27.240Z,103643.50
2018-12-12T17:13:53.262Z,103647.73
2018-12-12T17:16:19.287Z,103650.24
2018-12-12T17:18:45.363Z,103653.06
2018-12-12T17:21:11.353Z,103651.59
2018-12-12T17:23:37.435Z,103654.41
2018-12-12T17:26:03.564Z,103655.06
2018-12-12T17:28:29.603Z,103649.02
2018-12-12T17:30:55.693Z,103657.31
2018-12-12T17:33:21.737Z,103654.94
2018-12-12T17:35:47.768Z,103653.81
2018-12-12T17:38:13.809Z,103661.98
2018-12-12T17:40:39.942Z,103662.72
2018-12-12T17:43:05.981Z,103661.98
2018-12-12T17:45:32.189Z,103662.20
2018-12-12T17:47:58.222Z,103666.39
2018-12-12T17:50:24.274Z,103664.05
2018-12-12T17:52:50.331Z,103662.58
2018-12-12T17:55:16.400Z,103660.20
2018-12-12T17:57:42.406Z,103654.84
2018-12-12T18:00:08.822Z,103667.00
2018-12-12T18:02:34.853Z,103673.78
2018-12-12T18:05:00.917Z,103681.48
2018-12-12T18:07:26.932Z,103684.50
2018-12-12T18:09:52.959Z,103672.31
2018-12-12T18:12:19.008Z,103670.63
2018-12-12T18:14:45.038Z,103665.91
2018-12-12T18:17:11.071Z,103673.30
2018-12-12T18:19:37.142Z,103679.40
2018-12-12T18:22:03.155Z,103677.37
2018-12-12T18:24:29.189Z,103677.50
2018-12-12T18:26:55.190Z,103677.67
2018-12-12T18:29:21.232Z,103678.88
2018-12-12T18:31:47.268Z,103689.08
2018-12-12T18:34:13.323Z,103684.84
2018-12-12T18:36:39.411Z,103689.72
2018-12-12T18:39:05.680Z,103694.81
2018-12-12T18:41:31.890Z,103690.92
2018-12-12T18:43:57.912Z,103696.50
2018-12-12T18:46:23.956Z,103700.64
2018-12-12T18:48:50.039Z,103708.24
2018-12-12T18:51:16.046Z,103699.47
2018-12-12T18:53:42.041Z,103705.77
2018-12-12T18:56:08.232Z,103700.70
2018-12-12T18:58:34.283Z,103709.59
2018-12-12T19:01:00.328Z,103699.67
2018-12-12T19:03:26.430Z,103703.84
2018-12-12T19:05:52.482Z,103705.23
2018-12-12T19:08:18.520Z,103705.31
2018-12-12T19:10:44.595Z,103710.50
2018-12-12T19:13:10.606Z,103705.61
2018-12-12T19:15:36.649Z,103700.61
2018-12-12T19:18:02.724Z,103699.61
2018-12-12T19:20:28.749Z,103701.16
2018-12-12T19:22:54.819Z,103694.06
2018-12-12T19:25:20.856Z,103694.06
2018-12-12T19:27:46.901Z,103697.08
2018-12-12T19:30:13.094Z,103698.86
2018-12-12T19:32:39.174Z,103695.06
2018-12-12T19:35:06.755Z,103705.52
2018-12-12T19:37:32.806Z,103703.23
2018-12-12T19:39:58.860Z,103707.73
2018-12-12T19:42:25.965Z,103708.59
2018-12-12T19:44:51.992Z,103701.24
2018-12-12T19:47:18.042Z,103704.50
2018-12-12T19:49:44.087Z,103704.11
2018-12-12T19:55:05.761Z,103713.19
2018-12-12T19:57:31.820Z,103713.88
2018-12-12T19:59:57.849Z,103717.28
2018-12-12T20:02:23.959Z,103713.78
2018-12-12T20:04:49.995Z,103719.88
2018-12-12T20:07:16.024Z,103723.03
2018-12-12T20:09:48.988Z,103725.33
2018-12-12T20:12:15.016Z,103716.08
2018-12-12T20:14:41.086Z,103726.23
2018-12-12T20:17:07.128Z,103725.24
2018-12-12T20:19:33.148Z,103730.81
2018-12-12T20:21:59.222Z,103732.02
2018-12-12T20:24:25.209Z,103733.66
2018-12-12T20:26:51.268Z,103730.78
2018-12-12T20:29:17.361Z,103721.01
2018-12-12T20:31:43.469Z,103717.18
2018-12-12T20:34:09.493Z,103720.98
2018-12-12T20:36:35.520Z,103719.79
2018-12-12T20:39:01.545Z,103724.79
2018-12-12T20:41:27.561Z,103726.08
2018-12-12T20:43:53.800Z,103733.23
2018-12-12T20:46:19.850Z,103721.09
2018-12-12T20:48:45.877Z,103723.11
2018-12-12T20:51:11.917Z,103726.48
2018-12-12T20:53:37.960Z,103721.68
2018-12-12T20:56:10.906Z,103720.38
2018-12-12T20:58:36.952Z,103720.38
2018-12-12T21:01:03.042Z,103718.70
2018-12-12T21:03:29.058Z,103715.33
2018-12-12T21:05:55.162Z,103711.11
2018-12-12T21:08:21.224Z,103715.52
2018-12-12T21:10:47.242Z,103720.36
2018-12-12T21:13:13.293Z,103703.03
2018-12-12T21:15:41.380Z,103706.53
2018-12-12T21:18:07.478Z,103711.63
2018-12-12T21:20:33.534Z,103704.54
2018-12-12T21:22:59.581Z,103703.54
2018-12-12T21:25:27.655Z,103708.05
2018-12-12T21:27:53.679Z,103704.80
2018-12-12T21:30:19.748Z,103708.69
2018-12-12T21:32:45.775Z,103715.45
2018-12-12T21:35:11.817Z,103710.76
2018-12-12T21:40:33.964Z,103718.67
2018-12-12T21:42:59.984Z,103715.08
2018-12-12T21:45:26.227Z,103718.97
2018-12-12T21:47:52.298Z,103714.98
2018-12-12T21:50:18.386Z,103714.90
2018-12-12T21:52:44.424Z,103717.30
2018-12-12T21:55:10.516Z,103718.11
2018-12-12T21:57:36.550Z,103721.48
2018-12-12T22:00:03.095Z,103722.29
2018-12-12T22:02:29.174Z,103723.49
2018-12-12T22:04:55.252Z,103724.69
2018-12-12T22:07:21.291Z,103725.17
2018-12-12T22:09:47.414Z,103718.61
2018-12-12T22:12:13.460Z,103715.23
2018-12-12T22:14:39.760Z,103712.33
2018-12-12T22:17:05.806Z,103707.97
2018-12-12T22:19:31.861Z,103709.55
2018-12-12T22:21:57.937Z,103716.03
2018-12-12T22:24:23.942Z,103722.73
2018-12-12T22:26:49.980Z,103720.34
2018-12-12T22:29:16.056Z,103717.17
2018-12-12T22:31:42.105Z,103717.38
2018-12-12T22:34:08.239Z,103722.27
2018-12-12T22:36:34.315Z,103713.82
2018-12-12T22:39:00.390Z,103718.48
2018-12-12T22:41:26.477Z,103716.22
2018-12-12T22:43:52.498Z,103716.80
2018-12-12T22:46:18.595Z,103713.73
2018-12-12T22:48:44.630Z,103718.00
2018-12-12T22:51:10.808Z,103716.22
2018-12-12T22:53:36.861Z,103718.48
2018-12-12T22:56:02.905Z,103716.02
2018-12-12T22:58:28.994Z,103704.47
2018-12-12T23:00:58.870Z,103704.57
2018-12-12T23:03:24.967Z,103709.65
2018-12-12T23:05:51.043Z,103712.23
2018-12-12T23:08:17.083Z,103711.43
2018-12-12T23:10:43.289Z,103717.61
2018-12-12T23:13:09.467Z,103706.58
2018-12-12T23:15:35.492Z,103713.83
2018-12-12T23:18:01.564Z,103710.75
2018-12-12T23:23:04.595Z,103715.93
2018-12-12T23:25:30.796Z,103714.15
2018-12-12T23:27:56.842Z,103714.05
2018-12-12T23:30:22.905Z,103718.22
2018-12-12T23:32:48.956Z,103713.05
2018-12-12T23:35:15.025Z,103708.36
2018-12-12T23:37:41.006Z,103714.34
2018-12-12T23:40:07.220Z,103717.31
2018-12-12T23:42:33.248Z,103717.64
2018-12-12T23:44:59.295Z,103719.61
2018-12-12T23:47:25.587Z,103718.31
2018-12-12T23:49:51.602Z,103723.91
2018-12-12T23:52:17.640Z,103729.96
2018-12-12T23:54:43.665Z,103729.09
2018-12-12T23:57:09.712Z,103726.41
2018-12-12T23:59:35.752Z,103721.03
